createdAt,value
2023-04-23T00:00:27.048Z,59.31
2023-04-23T00:02:58.718Z,59.64
2023-04-23T00:05:29.396Z,60.28
2023-04-23T00:08:01.631Z,60.35
2023-04-23T00:10:30.488Z,60.26
2023-04-23T00:12:59.447Z,60.09
2023-04-23T00:15:28.713Z,60.13
2023-04-23T00:17:57.087Z,60.37
2023-04-23T00:20:25.299Z,60.41
2023-04-23T00:22:54.920Z,60.33
2023-04-23T00:25:23.421Z,60.31
2023-04-23T00:27:51.626Z,60.33
2023-04-23T00:30:19.977Z,60.18
2023-04-23T00:32:48.578Z,60.39
2023-04-23T00:35:17.023Z,60.16
2023-04-23T00:37:45.382Z,60.22
2023-04-23T00:40:15.266Z,60.41
2023-04-23T00:42:44.719Z,60.41
2023-04-23T00:45:13.413Z,60.47
2023-04-23T00:47:42.202Z,60.31
2023-04-23T00:50:11.510Z,59.83
2023-04-23T00:52:40.838Z,60.46
2023-04-23T00:55:09.957Z,60.41
2023-04-23T00:57:40.931Z,60.53
2023-04-23T01:00:12.195Z,60.41
2023-04-23T01:02:41.072Z,60.21
2023-04-23T01:05:11.605Z,60.22
2023-04-23T01:07:40.094Z,60.31
2023-04-23T01:10:10.855Z,60.59
2023-04-23T01:12:40.621Z,60.57
2023-04-23T01:15:10.486Z,60.45
2023-04-23T01:17:38.823Z,60.49
2023-04-23T01:20:09.669Z,60.63
2023-04-23T01:22:39.675Z,60.65
2023-04-23T01:25:10.337Z,60.79
2023-04-23T01:27:39.326Z,60.75
2023-04-23T01:30:08.794Z,60.97
2023-04-23T01:32:37.729Z,60.84
2023-04-23T01:35:08.384Z,60.96
2023-04-23T01:37:37.391Z,60.96
2023-04-23T01:40:08.911Z,60.86
2023-04-23T01:42:37.582Z,60.82
2023-04-23T01:45:08.042Z,60.86
2023-04-23T01:47:36.935Z,60.86
2023-04-23T01:50:05.591Z,60.93
2023-04-23T01:52:33.915Z,60.99
2023-04-23T01:55:02.389Z,60.95
2023-04-23T01:57:32.276Z,60.90
2023-04-23T02:00:08.158Z,61.15
2023-04-23T02:02:44.200Z,61.09
2023-04-23T02:05:14.691Z,61.17
2023-04-23T02:07:43.878Z,61.10
2023-04-23T02:10:12.833Z,60.91
2023-04-23T02:12:42.723Z,61.13
2023-04-23T02:15:12.438Z,61.34
2023-04-23T02:17:41.803Z,61.12
2023-04-23T02:20:11.835Z,61.59
2023-04-23T02:22:41.940Z,61.47
2023-04-23T02:25:11.092Z,61.59
2023-04-23T02:27:39.416Z,61.59
2023-04-23T02:30:11.587Z,61.73
2023-04-23T02:32:40.946Z,62.05
2023-04-23T02:35:10.577Z,62.07
2023-04-23T02:37:39.725Z,62.02
2023-04-23T02:40:09.360Z,62.04
2023-04-23T02:42:38.147Z,62.18
2023-04-23T02:45:07.926Z,62.09
2023-04-23T02:47:37.665Z,62.24
2023-04-23T02:50:07.801Z,62.31
2023-04-23T02:52:36.709Z,62.18
2023-04-23T02:55:05.646Z,62.12
2023-04-23T02:57:34.597Z,62.16
2023-04-23T03:00:05.928Z,62.17
2023-04-23T03:02:42.016Z,62.13
2023-04-23T03:05:11.194Z,62.12
2023-04-23T03:07:39.602Z,62.20
2023-04-23T03:10:09.027Z,62.32
2023-04-23T03:12:37.490Z,62.57
2023-04-23T03:15:07.468Z,62.64
2023-04-23T03:17:38.715Z,62.54
2023-04-23T03:20:11.642Z,62.76
2023-04-23T03:22:41.365Z,62.84
2023-04-23T03:25:10.484Z,62.86
2023-04-23T03:27:40.523Z,63.03
2023-04-23T03:30:11.125Z,63.00
2023-04-23T03:32:40.025Z,63.02
2023-04-23T03:35:10.821Z,63.37
2023-04-23T03:37:42.765Z,63.43
2023-04-23T03:40:11.687Z,63.24
2023-04-23T03:42:42.374Z,62.94
2023-04-23T03:45:14.272Z,62.98
2023-04-23T03:47:42.786Z,62.97
2023-04-23T03:50:13.927Z,63.07
2023-04-23T03:52:44.841Z,63.45
2023-04-23T03:55:21.171Z,63.45
2023-04-23T03:57:49.737Z,63.43
2023-04-23T04:00:27.526Z,63.36
2023-04-23T04:02:55.976Z,63.26
2023-04-23T04:05:28.897Z,63.11
2023-04-23T04:07:57.406Z,63.00
2023-04-23T04:10:27.230Z,62.92
2023-04-23T04:12:55.496Z,62.81
2023-04-23T04:15:24.460Z,62.68
2023-04-23T04:17:52.706Z,62.59
2023-04-23T04:20:20.996Z,62.66
2023-04-23T04:22:50.630Z,62.79
2023-04-23T04:25:18.933Z,62.64
2023-04-23T04:27:47.167Z,62.44
2023-04-23T04:30:15.870Z,62.33
2023-04-23T04:32:45.700Z,62.08
2023-04-23T04:35:14.487Z,61.88
2023-04-23T04:37:43.887Z,61.93
2023-04-23T04:40:15.219Z,61.91
2023-04-23T04:42:43.511Z,61.83
2023-04-23T04:45:12.365Z,61.43
2023-04-23T04:47:41.364Z,61.46
2023-04-23T04:50:10.347Z,61.67
2023-04-23T04:52:41.708Z,61.60
2023-04-23T04:55:11.012Z,61.61
2023-04-23T04:57:40.774Z,61.61
2023-04-23T05:00:23.613Z,61.47
2023-04-23T05:02:52.312Z,61.37
2023-04-23T05:05:21.475Z,61.47
2023-04-23T05:07:49.751Z,61.24
2023-04-23T05:10:18.178Z,61.24
2023-04-23T05:12:48.156Z,61.22
2023-04-23T05:15:16.566Z,61.12
2023-04-23T05:17:45.209Z,61.11
2023-04-23T05:20:14.429Z,60.91
2023-04-23T05:22:43.861Z,60.89
2023-04-23T05:25:12.876Z,60.88
2023-04-23T05:27:41.527Z,60.70
2023-04-23T05:30:12.411Z,60.58
2023-04-23T05:32:40.850Z,60.41
2023-04-23T05:35:09.914Z,60.48
2023-04-23T05:37:38.171Z,60.38
2023-04-23T05:40:07.936Z,60.33
2023-04-23T05:42:37.344Z,60.18
2023-04-23T05:45:08.550Z,60.43
2023-04-23T05:47:41.406Z,60.61
2023-04-23T05:50:11.653Z,60.23
2023-04-23T05:52:40.050Z,60.36
2023-04-23T05:55:09.786Z,60.12
2023-04-23T05:57:39.519Z,60.22
2023-04-23T06:00:11.852Z,60.27
2023-04-23T06:02:44.535Z,60.32
2023-04-23T06:05:13.496Z,60.17
2023-04-23T06:07:42.281Z,60.36
2023-04-23T06:10:10.961Z,60.28
2023-04-23T06:12:40.217Z,60.31
2023-04-23T06:15:09.728Z,60.83
2023-04-23T06:17:38.333Z,61.09
2023-04-23T06:20:11.896Z,60.38
2023-04-23T06:22:52.202Z,60.44
2023-04-23T06:25:20.582Z,60.88
2023-04-23T06:27:48.790Z,61.09
2023-04-23T06:30:22.225Z,61.51
2023-04-23T06:32:51.586Z,61.12
2023-04-23T06:35:21.640Z,61.12
2023-04-23T06:37:50.085Z,61.54
2023-04-23T06:40:18.560Z,61.80
2023-04-23T06:42:47.672Z,61.76
2023-04-23T06:45:21.468Z,61.38
2023-04-23T06:47:51.113Z,62.66
2023-04-23T06:50:19.488Z,61.25
2023-04-23T06:52:49.258Z,61.93
2023-04-23T06:55:17.490Z,61.95
2023-04-23T06:57:45.851Z,62.34
2023-04-23T07:00:14.726Z,61.56
2023-04-23T07:02:44.628Z,62.00
2023-04-23T07:05:13.083Z,62.98
2023-04-23T07:07:43.455Z,62.34
2023-04-23T07:10:15.025Z,62.45
2023-04-23T07:12:45.318Z,61.86
2023-04-23T07:15:13.644Z,62.76
2023-04-23T07:17:42.004Z,62.37
2023-04-23T07:20:10.695Z,63.11
2023-04-23T07:22:38.990Z,62.72
2023-04-23T07:25:08.770Z,63.11
2023-04-23T07:27:38.484Z,62.21
2023-04-23T07:30:08.145Z,63.34
2023-04-23T07:32:36.501Z,62.57
2023-04-23T07:35:05.420Z,64.43
2023-04-23T07:37:33.631Z,63.23
2023-04-23T07:40:02.456Z,63.05
2023-04-23T07:42:30.730Z,63.53
2023-04-23T07:45:00.584Z,63.90
2023-04-23T07:47:28.866Z,63.60
2023-04-23T07:49:57.128Z,64.78
2023-04-23T07:52:25.344Z,63.83
2023-04-23T07:54:53.652Z,65.01
2023-04-23T07:57:22.009Z,63.08
2023-04-23T07:59:50.644Z,63.34
2023-04-23T08:02:23.917Z,64.83
2023-04-23T08:04:52.474Z,64.33
2023-04-23T08:07:21.136Z,64.40
2023-04-23T08:09:49.446Z,64.54
2023-04-23T08:12:18.077Z,65.59
2023-04-23T08:14:47.414Z,64.47
2023-04-23T08:17:20.082Z,64.63
2023-04-23T08:19:48.372Z,64.59
2023-04-23T08:22:17.291Z,65.71
2023-04-23T08:24:46.409Z,64.98
2023-04-23T08:27:14.711Z,65.14
2023-04-23T08:29:43.144Z,65.07
2023-04-23T08:32:11.609Z,64.53
2023-04-23T08:34:41.245Z,66.54
2023-04-23T08:37:16.553Z,66.24
2023-04-23T08:39:51.763Z,66.26
2023-04-23T08:42:28.157Z,66.10
2023-04-23T08:44:56.787Z,66.59
2023-04-23T08:47:26.274Z,66.35
2023-04-23T08:49:56.641Z,65.96
2023-04-23T08:52:26.002Z,66.18
2023-04-23T08:54:55.358Z,66.65
2023-04-23T08:57:23.768Z,65.07
2023-04-23T08:59:53.335Z,66.48
2023-04-23T09:02:21.946Z,65.39
2023-04-23T09:04:51.896Z,65.07
2023-04-23T09:07:22.242Z,66.86
2023-04-23T09:09:50.710Z,66.94
2023-04-23T09:12:19.018Z,64.18
2023-04-23T09:14:47.260Z,65.88
2023-04-23T09:17:15.568Z,68.43
2023-04-23T09:19:44.378Z,65.67
2023-04-23T09:22:13.128Z,67.55
2023-04-23T09:24:44.473Z,65.51
2023-04-23T09:27:12.745Z,67.78
2023-04-23T09:29:41.372Z,66.15
2023-04-23T09:32:11.061Z,66.83
2023-04-23T09:34:39.373Z,65.85
2023-04-23T09:37:11.070Z,65.85
2023-04-23T09:39:40.946Z,66.85
2023-04-23T09:42:12.919Z,67.88
2023-04-23T09:44:41.226Z,66.89
2023-04-23T09:47:12.112Z,65.92
2023-04-23T09:49:47.894Z,65.43
2023-04-23T09:52:16.487Z,66.36
2023-04-23T09:54:46.454Z,66.23
2023-04-23T09:57:16.982Z,66.18
2023-04-23T09:59:47.844Z,65.60
2023-04-23T10:02:18.964Z,66.50
2023-04-23T10:05:00.688Z,65.47
2023-04-23T10:07:35.983Z,65.38
2023-04-23T10:10:04.521Z,66.20
2023-04-23T10:12:52.294Z,65.99
2023-04-23T10:15:22.570Z,66.75
2023-04-23T10:17:52.050Z,67.55
2023-04-23T10:20:22.835Z,65.67
2023-04-23T10:22:52.425Z,67.58
2023-04-23T10:25:22.418Z,66.13
2023-04-23T10:27:54.810Z,66.73
2023-04-23T10:30:24.018Z,66.60
2023-04-23T10:32:52.525Z,65.57
2023-04-23T10:35:20.833Z,65.70
2023-04-23T10:37:50.558Z,66.95
2023-04-23T10:40:24.797Z,66.40
2023-04-23T10:42:55.680Z,65.99
2023-04-23T10:45:25.739Z,65.69
2023-04-23T10:47:55.936Z,65.59
2023-04-23T10:50:26.353Z,65.30
2023-04-23T10:52:57.162Z,65.24
2023-04-23T10:55:27.471Z,65.61
2023-04-23T10:58:03.347Z,65.42
2023-04-23T11:00:46.491Z,65.72
2023-04-23T11:03:42.968Z,64.80
2023-04-23T11:06:15.690Z,63.82
2023-04-23T11:08:54.214Z,63.77
2023-04-23T11:11:39.909Z,64.47
2023-04-23T11:14:15.544Z,63.71
2023-04-23T11:16:44.258Z,64.45
2023-04-23T11:19:13.360Z,65.07
2023-04-23T11:22:01.619Z,64.63
2023-04-23T11:24:31.872Z,66.56
2023-04-23T11:27:01.226Z,66.02
2023-04-23T11:29:31.017Z,65.93
2023-04-23T11:32:02.914Z,65.78
2023-04-23T11:34:33.329Z,67.43
2023-04-23T11:37:05.012Z,66.01
2023-04-23T11:39:33.838Z,66.91
2023-04-23T11:42:03.353Z,66.75
2023-04-23T11:44:33.809Z,65.20
2023-04-23T11:47:03.094Z,65.35
2023-04-23T11:49:31.498Z,65.94
2023-04-23T11:52:01.822Z,64.64
2023-04-23T11:54:30.694Z,64.39
2023-04-23T11:56:59.881Z,66.14
2023-04-23T11:59:29.079Z,66.98
2023-04-23T12:01:59.970Z,65.33
2023-04-23T12:04:30.639Z,64.95
2023-04-23T12:07:00.376Z,65.47
2023-04-23T12:09:30.457Z,65.56
2023-04-23T12:11:59.365Z,64.93
2023-04-23T12:14:30.053Z,64.20
2023-04-23T12:17:09.905Z,65.50
2023-04-23T12:19:38.404Z,64.04
2023-04-23T12:22:08.556Z,61.98
2023-04-23T12:24:48.476Z,65.32
2023-04-23T12:27:20.398Z,63.52
2023-04-23T12:29:49.535Z,64.54
2023-04-23T12:32:22.965Z,64.63
2023-04-23T12:34:55.803Z,64.21
2023-04-23T12:37:26.847Z,64.82
2023-04-23T12:39:56.892Z,63.14
2023-04-23T12:42:25.845Z,62.14
2023-04-23T12:44:55.827Z,62.98
2023-04-23T12:47:25.804Z,63.76
2023-04-23T12:49:55.649Z,63.36
2023-04-23T12:52:24.050Z,64.37
2023-04-23T12:54:56.309Z,63.15
2023-04-23T12:57:25.280Z,62.53
2023-04-23T12:59:54.908Z,63.28
2023-04-23T13:02:25.983Z,61.88
2023-04-23T13:05:00.753Z,62.28
2023-04-23T13:07:29.515Z,63.11
2023-04-23T13:09:59.678Z,61.85
2023-04-23T13:12:28.276Z,62.74
2023-04-23T13:14:56.599Z,61.47
2023-04-23T13:17:28.531Z,62.85
2023-04-23T13:19:57.243Z,63.27
2023-04-23T13:22:28.716Z,62.53
2023-04-23T13:24:58.101Z,63.23
2023-04-23T13:27:29.234Z,62.62
2023-04-23T13:29:58.834Z,61.89
2023-04-23T13:32:32.128Z,62.16
2023-04-23T13:35:04.046Z,60.87
2023-04-23T13:37:33.628Z,61.85
2023-04-23T13:40:02.850Z,60.75
2023-04-23T13:42:32.303Z,60.97
2023-04-23T13:45:00.579Z,61.09
2023-04-23T13:47:33.354Z,61.39
2023-04-23T13:50:03.052Z,61.92
2023-04-23T13:52:31.803Z,61.11
2023-04-23T13:55:00.326Z,60.76
2023-04-23T13:57:28.757Z,61.78
2023-04-23T13:59:57.143Z,60.83
2023-04-23T14:02:25.487Z,61.44
2023-04-23T14:04:55.259Z,60.86
2023-04-23T14:07:23.802Z,61.02
2023-04-23T14:09:52.940Z,60.61
2023-04-23T14:12:21.542Z,61.58
2023-04-23T14:14:51.602Z,60.66
2023-04-23T14:17:19.846Z,61.74
2023-04-23T14:19:48.566Z,61.68
2023-04-23T14:22:18.325Z,62.63
2023-04-23T14:24:50.798Z,62.34
2023-04-23T14:27:19.171Z,61.28
2023-04-23T14:29:52.303Z,61.71
2023-04-23T14:32:20.945Z,62.40
2023-04-23T14:34:49.292Z,62.44
2023-04-23T14:37:19.015Z,62.21
2023-04-23T14:39:47.730Z,63.27
2023-04-23T14:42:15.987Z,61.99
2023-04-23T14:44:44.351Z,62.44
2023-04-23T14:47:12.626Z,62.06
2023-04-23T14:49:41.901Z,62.12
2023-04-23T14:52:11.139Z,63.00
2023-04-23T14:54:40.830Z,63.26
2023-04-23T14:57:09.222Z,62.32
2023-04-23T14:59:37.483Z,62.32
2023-04-23T15:02:05.960Z,62.79
2023-04-23T15:04:36.526Z,62.17
2023-04-23T15:07:04.948Z,61.81
2023-04-23T15:09:33.780Z,61.79
2023-04-23T15:12:07.003Z,62.12
2023-04-23T15:14:39.066Z,62.68
2023-04-23T15:17:07.395Z,63.24
2023-04-23T15:19:35.695Z,62.37
2023-04-23T15:22:04.075Z,62.77
2023-04-23T15:24:32.352Z,61.99
2023-04-23T15:27:01.243Z,62.95
2023-04-23T15:29:31.159Z,61.96
2023-04-23T15:31:59.683Z,62.06
2023-04-23T15:34:28.032Z,62.84
2023-04-23T15:36:56.262Z,62.92
2023-04-23T15:39:24.865Z,62.45
2023-04-23T15:41:53.799Z,62.02
2023-04-23T15:44:22.065Z,62.14
2023-04-23T15:46:51.772Z,62.06
2023-04-23T15:49:20.084Z,61.91
2023-04-23T15:51:48.356Z,62.21
2023-04-23T15:54:16.608Z,61.83
2023-04-23T15:56:44.919Z,62.17
2023-04-23T15:59:13.658Z,61.69
2023-04-23T16:01:42.073Z,61.45
2023-04-23T16:04:12.441Z,61.57
2023-04-23T16:06:40.944Z,61.89
2023-04-23T16:09:09.582Z,61.79
2023-04-23T16:11:37.983Z,60.95
2023-04-23T16:14:07.133Z,61.34
2023-04-23T16:16:35.737Z,61.13
2023-04-23T16:19:04.059Z,60.83
2023-04-23T16:21:33.773Z,60.90
2023-04-23T16:24:02.051Z,60.79
2023-04-23T16:26:30.689Z,60.84
2023-04-23T16:29:11.325Z,61.00
2023-04-23T16:31:48.084Z,60.93
2023-04-23T16:34:16.376Z,60.91
2023-04-23T16:36:46.205Z,60.72
2023-04-23T16:39:14.547Z,60.44
2023-04-23T16:41:42.837Z,60.67
2023-04-23T16:44:11.226Z,60.04
2023-04-23T16:46:39.806Z,60.73
2023-04-23T16:49:08.265Z,60.10
2023-04-23T16:51:36.521Z,60.67
2023-04-23T16:54:06.929Z,60.61
2023-04-23T16:56:35.310Z,60.27
2023-04-23T16:59:04.228Z,61.43
2023-04-23T17:01:32.585Z,61.10
2023-04-23T17:04:01.138Z,61.35
2023-04-23T17:06:30.952Z,60.89
2023-04-23T17:09:00.445Z,61.05
2023-04-23T17:11:32.077Z,60.67
2023-04-23T17:14:00.740Z,60.91
2023-04-23T17:16:29.173Z,59.77
2023-04-23T17:18:57.934Z,60.37
2023-04-23T17:21:27.340Z,60.02
2023-04-23T17:23:55.654Z,60.37
2023-04-23T17:26:24.028Z,60.52
2023-04-23T17:28:53.754Z,60.62
2023-04-23T17:31:22.086Z,60.54
2023-04-23T17:33:50.626Z,60.56
2023-04-23T17:36:19.220Z,61.17
2023-04-23T17:38:47.528Z,60.11
2023-04-23T17:41:16.805Z,60.33
2023-04-23T17:43:45.098Z,60.82
2023-04-23T17:46:14.898Z,60.13
2023-04-23T17:48:43.242Z,60.51
2023-04-23T17:51:11.552Z,61.10
2023-04-23T17:53:39.856Z,60.90
2023-04-23T17:56:08.084Z,61.27
2023-04-23T17:58:38.227Z,61.50
2023-04-23T18:01:08.891Z,62.30
2023-04-23T18:03:39.160Z,62.84
2023-04-23T18:06:09.259Z,62.88
2023-04-23T18:08:38.465Z,63.20
2023-04-23T18:11:08.383Z,63.69
2023-04-23T18:13:37.503Z,63.34
2023-04-23T18:16:05.935Z,63.26
2023-04-23T18:18:34.568Z,63.68
2023-04-23T18:21:05.124Z,63.40
2023-04-23T18:23:33.452Z,63.65
2023-04-23T18:26:02.119Z,63.08
2023-04-23T18:28:30.503Z,63.34
2023-04-23T18:31:02.680Z,62.97
2023-04-23T18:33:33.682Z,63.20
2023-04-23T18:36:06.669Z,63.50
2023-04-23T18:38:40.791Z,63.62
2023-04-23T18:41:09.096Z,64.81
2023-04-23T18:43:37.386Z,65.21
2023-04-23T19:39:31.016Z,68.71
2023-04-23T19:41:59.440Z,68.80
2023-04-23T19:44:27.838Z,68.80
2023-04-23T19:46:56.595Z,68.97
2023-04-23T19:49:24.983Z,69.00
2023-04-23T19:51:54.502Z,69.26
2023-04-23T19:54:24.510Z,69.06
2023-04-23T19:56:54.438Z,68.62
2023-04-23T19:59:22.890Z,67.83
2023-04-23T20:01:51.096Z,67.80
2023-04-23T20:04:19.429Z,67.85
2023-04-23T20:06:48.021Z,67.42
2023-04-23T20:09:21.532Z,67.72
2023-04-23T20:11:49.801Z,67.13
2023-04-23T20:14:19.599Z,67.33
2023-04-23T20:16:48.473Z,66.78
2023-04-23T20:19:17.263Z,66.21
2023-04-23T20:21:46.027Z,65.37
2023-04-23T20:24:15.278Z,65.88
2023-04-23T20:26:43.602Z,65.95
2023-04-23T20:29:11.878Z,66.27
2023-04-23T20:31:41.871Z,66.33
2023-04-23T20:34:11.050Z,65.86
2023-04-23T20:36:39.358Z,65.92
2023-04-23T20:39:08.255Z,65.82
2023-04-23T20:41:36.708Z,66.01
2023-04-23T20:44:06.057Z,65.82
2023-04-23T20:46:34.510Z,66.30
2023-04-23T20:49:04.772Z,66.80
2023-04-23T20:51:34.453Z,67.22
2023-04-23T20:54:03.544Z,67.23
2023-04-23T20:56:32.111Z,66.62
2023-04-23T20:59:00.910Z,66.86
2023-04-23T21:01:29.376Z,67.05
2023-04-23T21:04:00.183Z,67.17
2023-04-23T21:06:31.485Z,66.83
2023-04-23T21:09:00.146Z,66.52
2023-04-23T21:11:28.490Z,66.04
2023-04-23T21:13:58.101Z,65.75
2023-04-23T21:16:27.855Z,65.66
2023-04-23T21:18:56.163Z,65.86
2023-04-23T21:21:27.985Z,65.95
2023-04-23T21:23:59.624Z,65.62
2023-04-23T21:26:28.572Z,65.43
2023-04-23T21:28:57.263Z,65.56
2023-04-23T21:31:36.416Z,65.14
2023-04-23T21:34:04.727Z,65.18
2023-04-23T21:36:33.022Z,65.26
2023-04-23T21:39:02.747Z,65.12
2023-04-23T21:41:31.085Z,65.04
2023-04-23T21:43:59.380Z,64.85
2023-04-23T21:46:27.973Z,64.94
2023-04-23T21:48:56.525Z,65.88
2023-04-23T21:51:25.107Z,65.98
2023-04-23T21:53:53.352Z,66.07
2023-04-23T21:56:23.100Z,66.42
2023-04-23T21:58:51.434Z,66.94
2023-04-23T22:01:19.732Z,66.79
2023-04-23T22:03:48.131Z,66.18
2023-04-23T22:06:17.760Z,66.17
2023-04-23T22:08:47.269Z,64.78
2023-04-23T22:11:17.600Z,64.31
2023-04-23T22:13:47.247Z,63.92
2023-04-23T22:16:27.326Z,63.91
2023-04-23T22:18:57.377Z,63.58
2023-04-23T22:21:25.705Z,63.41
2023-04-23T22:23:53.971Z,64.01
2023-04-23T22:26:22.283Z,64.10
2023-04-23T22:28:52.214Z,64.00
2023-04-23T22:31:20.510Z,63.42
2023-04-23T22:33:48.877Z,62.98
2023-04-23T22:36:17.128Z,63.00
2023-04-23T22:38:45.490Z,63.54
2023-04-23T22:41:13.716Z,62.82
2023-04-23T22:43:41.955Z,62.75
2023-04-23T22:46:11.752Z,62.98
2023-04-23T22:48:45.050Z,63.31
2023-04-23T22:51:13.396Z,63.04
2023-04-23T22:53:41.728Z,63.12
2023-04-23T22:56:10.047Z,62.34
2023-04-23T22:58:38.336Z,62.38
2023-04-23T23:01:06.919Z,62.79
2023-04-23T23:03:36.963Z,61.94
2023-04-23T23:06:05.738Z,62.78
2023-04-23T23:08:34.043Z,62.63
2023-04-23T23:11:02.465Z,62.42
2023-04-23T23:13:30.796Z,62.08
2023-04-23T23:16:02.389Z,62.59
2023-04-23T23:18:30.786Z,62.47
2023-04-23T23:21:00.539Z,62.51
2023-04-23T23:23:28.936Z,62.57
2023-04-23T23:25:59.865Z,62.31
2023-04-23T23:28:28.549Z,62.37
2023-04-23T23:30:57.815Z,62.12
2023-04-23T23:33:27.274Z,61.90
2023-04-23T23:35:56.182Z,61.83
2023-04-23T23:38:25.903Z,62.41
2023-04-23T23:40:54.506Z,61.97
2023-04-23T23:43:22.789Z,62.19
2023-04-23T23:45:51.303Z,62.21
2023-04-23T23:48:19.900Z,62.24
2023-04-23T23:50:48.267Z,61.80
2023-04-23T23:53:16.540Z,61.83
2023-04-23T23:55:46.204Z,61.65
2023-04-23T23:58:14.545Z,61.32
